Hlavní strana
METAR-TAF:

METAR-TAF

Letiště :

Džíbútí, Džibutsko

zeměpisná šířka: 11-33N, zeměpisná délka: 043-10E, výška: 49 m

Aktuální stav počasí

Zpráva byla vytvořena před 23 minutami, v 09:00 UTC
Východní vítr 11 kt
Teplota 29°C
Vlhkost vzduchu 55%
Tlak 1015 hPa
Viditelnost 10 km a více
Polojasno ve výšce 2000 ft

METAR: HDAM 240900Z 10011KT 9999 SCT020 29/19 Q1015

Čas: 12:23 (09:23 UTC)

Předpověď počasí

Zpráva byla vytvořena před 4 hodinami a 23 minutami, v 05:00 UTC
Předpověď platná od 24 v 06 UTC do 25 v 06 UTC
Východní vítr 10 kt
Viditelnost 10 km a více
Polojasno ve výšce 2300 ft
Změna
od 24 v 15 UTC do 24 v 18 UTC
vítr z různých směrů 5 kt
Viditelnost 10 km a více
Žádná oblačnost pod 1500 m, nevyskytují se cumulonimby.
Změna
od 25 v 00 UTC do 25 v 03 UTC
Severní vítr kt
Polojasno ve výšce 2000 ft

TAF: HDAM 240500Z 2406/2506 10010KT 9999 SCT023 BECMG 2415/2418 VRB05KT CAVOK BECMG 2500/2503 00000KT SCT020

Stav a předpovědi počasí z více než 4 000 letišť (zprávy METAR a TAF).

Červené a žluté tečky na mapě představují dostupné meteorologické stanice.

Když kurzor umístíte na tečku, zobrazí se název stanice.

Pak kliknutím zobrazíte stav a předpověď počasí.

Chcete-li změnit mapu, kliknutím na zelené tlačítko se znaménkem +mapu přiblížíte, kliknutím na zelené tlačítko se znaménkem – mapu oddálíte a kliknutím na zelené šipky přejdete na sousední mapy.


METAR-TAF: